Time;durP1;ratioP1;P1;durP2;ratioP2;P2;SDS_P1;SDS_P2;PMS_P1;PMS_P2;Temp;Humidity;BMP_temperature;BMP_pressure;BME280_temperature;BME280_humidity;BME280_pressure;Samples;Min_cycle;Max_cycle;Signal;HPM_P1;HPM_P2
2024/01/19 00:00:38;;;;;;;;;;;;;;;7.27;51.38;97738.45;68014;1275;1016004;-61
2024/01/19 00:04:01;;;;;;;45.30;19.20;;;;;;;7.31;51.13;97747.53;67962;1275;1017054;-60
2024/01/19 00:07:04;;;;;;;;;;;;;;;7.09;51.92;97763.38;67951;1275;1016430;-61
2024/01/19 00:10:06;;;;;;;45.80;19.30;;;;;;;7.07;51.93;97763.56;67971;1275;1016303;-61
2024/01/19 00:13:09;;;;;;;;;;;;;;;7.17;51.71;97773.32;68031;1275;1016229;-62
2024/01/19 00:16:12;;;;;;;41.50;16.20;;;;;;;7.23;51.58;97781.63;67912;1275;1016394;-61
2024/01/19 00:19:14;;;;;;;;;;;;;;;7.17;51.56;97788.12;67992;1275;1016098;-61
2024/01/19 00:22:17;;;;;;;46.10;19.20;;;;;;;7.14;51.79;97794.04;67998;1275;1017149;-61
2024/01/19 00:25:20;;;;;;;;;;;;;;;7.06;52.01;97800.31;67954;1275;1016173;-61
2024/01/19 00:28:22;;;;;;;49.80;22.00;;;;;;;7.05;52.08;97807.64;67992;1275;1016428;-61
2024/01/19 00:53:27;;;;;;;50.40;23.20;;;;;;;2.32;100.00;97875.31;131745;1311;558124;-74
2024/01/19 00:56:29;;;;;;;48.20;20.20;;;;;;;3.18;100.00;97880.82;130532;1274;5316979;-71
2024/01/19 00:59:32;;;;;;;53.30;22.90;;;;;;;3.03;100.00;97895.31;134582;1292;22678;-70
2024/01/19 01:02:35;;;;;;;53.80;22.10;;;;;;;2.95;100.00;97898.98;134568;1292;22600;-71
2024/01/19 01:05:38;;;;;;;52.70;23.20;;;;;;;3.03;100.00;97897.93;134598;1292;22544;-71
2024/01/19 01:08:40;;;;;;;52.70;22.10;;;;;;;2.94;100.00;97893.31;134581;1292;22668;-70
2024/01/19 01:11:43;;;;;;;54.70;21.30;;;;;;;3.04;100.00;97898.75;134582;1273;22545;-72
2024/01/19 01:14:46;;;;;;;52.20;21.80;;;;;;;3.21;100.00;97896.94;134585;1274;23139;-69
2024/01/19 01:17:49;;;;;;;54.40;21.00;;;;;;;3.14;100.00;97905.88;134586;1292;22573;-70
2024/01/19 01:20:52;;;;;;;58.60;23.10;;;;;;;3.18;100.00;97912.27;134604;1292;22757;-69
2024/01/19 01:23:55;;;;;;;58.40;24.00;;;;;;;3.14;100.00;97919.73;134597;1292;22562;-71
2024/01/19 01:26:57;;;;;;;57.30;22.40;;;;;;;3.21;100.00;97919.56;134620;1292;22545;-69
2024/01/19 01:30:05;;;;;;;56.40;22.90;;;;;;;3.09;100.00;97920.45;134599;1292;25478;-71
2024/01/19 01:33:08;;;;;;;57.80;22.70;;;;;;;3.03;100.00;97933.35;134612;1292;22548;-71
2024/01/19 01:36:11;;;;;;;;;;;;;;;3.05;100.00;97939.10;134558;1292;26551;-70
2024/01/19 01:39:13;;;;;;;49.00;17.30;;;;;;;2.86;100.00;97943.58;134608;1292;22570;-70
2024/01/19 01:42:16;;;;;;;54.30;20.40;;;;;;;2.77;100.00;97946.38;134575;1292;22551;-71
2024/01/19 01:45:19;;;;;;;51.30;19.40;;;;;;;2.55;100.00;97950.77;134588;1292;22560;-70
2024/01/19 01:48:21;;;;;;;;;;;;;;;2.36;100.00;97958.98;134597;1292;22550;-68
2024/01/19 01:51:24;;;;;;;61.60;22.90;;;;;;;2.37;100.00;97972.22;134591;1292;22559;-70
2024/01/19 01:54:27;;;;;;;64.90;24.80;;;;;;;2.36;100.00;97974.00;134607;1292;22569;-69
2024/01/19 01:57:30;;;;;;;62.40;25.10;;;;;;;2.27;100.00;97973.83;134558;1292;22561;-70
2024/01/19 02:00:32;;;;;;;59.60;21.80;;;;;;;2.16;100.00;97982.06;134615;1289;22545;-70
2024/01/19 02:03:35;;;;;;;52.20;18.30;;;;;;;2.02;100.00;97992.41;134585;1292;22627;-70
2024/01/19 02:06:38;;;;;;;65.70;25.70;;;;;;;1.97;100.00;98001.28;134589;1292;22619;-68
2024/01/19 02:09:41;;;;;;;69.90;26.60;;;;;;;1.98;100.00;97998.61;134561;1292;22552;-69
2024/01/19 02:12:44;;;;;;;66.90;25.80;;;;;;;2.04;100.00;97995.45;134561;1292;24385;-71
2024/01/19 02:15:47;;;;;;;67.80;26.80;;;;;;;2.13;100.00;97997.02;134560;1275;24216;-69
2024/01/19 02:18:49;;;;;;;76.80;30.30;;;;;;;2.18;100.00;98010.95;134591;1292;22571;-70
2024/01/19 02:21:52;;;;;;;77.00;28.80;;;;;;;2.08;100.00;98021.20;134586;1292;22623;-71
2024/01/19 03:03:17;;;;;;;67.60;27.00;;;;;;;0.38;100.00;98057.93;131272;1309;558313;-61
2024/01/19 03:06:19;;;;;;;65.50;26.50;;;;;;;0.98;100.00;98069.31;134583;1289;88474;-54
2024/01/19 03:09:22;;;;;;;65.70;26.40;;;;;;;1.80;100.00;98072.42;134706;1289;22572;-54
2024/01/19 03:12:25;;;;;;;67.80;25.40;;;;;;;2.06;100.00;98071.27;134677;1289;22552;-61
2024/01/19 03:35:15;;;;;;;58.90;24.60;;;;;;;-0.03;100.00;98099.82;130995;1319;558008;-72
2024/01/19 03:38:18;;;;;;;;;;;;;;;0.64;100.00;98113.77;130542;1284;5317331;-69
2024/01/19 03:41:21;;;;;;;52.10;19.30;;;;;;;0.91;100.00;98114.80;134569;1292;23050;-71
2024/01/19 03:44:24;;;;;;;55.50;20.10;;;;;;;0.95;100.00;98131.38;134570;1292;23947;-71
2024/01/19 03:47:26;;;;;;;61.00;21.70;;;;;;;1.37;100.00;98129.45;134538;1292;26612;-70
2024/01/19 03:50:29;;;;;;;58.20;20.80;;;;;;;1.56;100.00;98134.31;135010;1284;22546;-73
2024/01/19 03:53:32;;;;;;;53.30;20.70;;;;;;;1.64;100.00;98146.78;134980;1264;22532;-71
2024/01/19 03:56:34;;;;;;;49.90;19.60;;;;;;;1.51;100.00;98149.13;135007;1284;22582;-73
2024/01/19 03:59:37;;;;;;;56.90;21.90;;;;;;;1.69;100.00;98156.60;134972;1284;22667;-71
2024/01/19 04:02:40;;;;;;;58.10;22.00;;;;;;;1.90;100.00;98164.10;135005;1284;25182;-72
2024/01/19 04:05:43;;;;;;;59.60;22.10;;;;;;;1.92;100.00;98159.56;135044;1284;22560;-71
2024/01/19 04:08:45;;;;;;;58.60;21.20;;;;;;;2.01;100.00;98163.55;135016;1284;22666;-69
2024/01/19 04:11:48;;;;;;;63.30;23.60;;;;;;;1.91;100.00;98174.78;135037;1284;22539;-67
2024/01/19 04:14:51;;;;;;;56.10;21.30;;;;;;;1.83;100.00;98180.56;135049;1284;22562;-68
2024/01/19 04:17:53;;;;;;;58.50;22.60;;;;;;;1.65;100.00;98193.27;134992;1283;25362;-62
2024/01/19 04:20:56;;;;;;;55.00;21.60;;;;;;;1.74;100.00;98202.44;134993;1283;22621;-66
2024/01/19 04:23:59;;;;;;;61.40;22.90;;;;;;;1.80;100.00;98201.70;135020;1284;22552;-71
2024/01/19 04:27:02;;;;;;;57.70;20.00;;;;;;;1.82;100.00;98209.91;135004;1284;25407;-68
2024/01/19 04:30:04;;;;;;;57.30;21.50;;;;;;;2.02;100.00;98209.56;135030;1284;22703;-72
2024/01/19 04:33:07;;;;;;;;;;;;;;;2.00;100.00;98210.30;135010;1283;22528;-70
2024/01/19 04:36:10;;;;;;;52.60;19.60;;;;;;;2.14;100.00;98216.17;135004;1284;22569;-71
2024/01/19 04:39:12;;;;;;;57.10;21.40;;;;;;;2.09;100.00;98217.94;134987;1284;22543;-71
2024/01/19 04:42:15;;;;;;;56.40;21.30;;;;;;;1.91;100.00;98216.31;134978;1262;25483;-63
2024/01/19 04:45:18;;;;;;;57.80;21.70;;;;;;;2.06;100.00;98217.70;135015;1284;22539;-69
2024/01/19 04:48:20;;;;;;;60.90;22.30;;;;;;;2.10;100.00;98219.95;134999;1284;22541;-68
2024/01/19 04:51:23;;;;;;;54.60;21.40;;;;;;;1.99;100.00;98229.30;135011;1284;25542;-68
2024/01/19 04:54:26;;;;;;;55.90;21.20;;;;;;;1.67;100.00;98244.91;134995;1284;22557;-72
2024/01/19 04:57:28;;;;;;;51.70;19.90;;;;;;;1.71;100.00;98242.88;135011;1284;22657;-70
2024/01/19 05:00:31;;;;;;;55.80;20.30;;;;;;;2.06;100.00;98244.96;134995;1284;27005;-71
2024/01/19 05:03:34;;;;;;;37.70;12.30;;;;;;;1.87;100.00;98269.91;134993;1261;22591;-74
2024/01/19 05:06:36;;;;;;;37.20;12.40;;;;;;;1.62;100.00;98271.27;134981;1284;22561;-74
2024/01/19 05:09:39;;;;;;;33.00;10.80;;;;;;;1.56;100.00;98272.84;135004;1284;25380;-69
2024/01/19 05:12:42;;;;;;;32.00;9.70;;;;;;;1.93;100.00;98267.63;135023;1284;22564;-73
2024/01/19 05:15:44;;;;;;;29.80;9.50;;;;;;;1.88;100.00;98271.07;135017;1284;22545;-73
2024/01/19 05:18:47;;;;;;;28.90;9.00;;;;;;;2.05;100.00;98273.60;135001;1284;22549;-67
2024/01/19 05:21:50;;;;;;;28.90;8.90;;;;;;;1.72;100.00;98292.83;134998;1284;22568;-73
2024/01/19 05:24:52;;;;;;;23.80;7.00;;;;;;;1.92;100.00;98296.46;134993;1284;22655;-72
2024/01/19 05:27:55;;;;;;;29.00;8.80;;;;;;;1.76;100.00;98294.77;134999;1262;25459;-68
2024/01/19 05:30:58;;;;;;;31.70;9.20;;;;;;;2.02;100.00;98303.05;135008;1284;22568;-71
2024/01/19 05:34:01;;;;;;;28.00;10.00;;;;;;;2.12;100.00;98306.65;134992;1284;22619;-71
2024/01/19 05:37:03;;;;;;;32.10;8.80;;;;;;;2.19;100.00;98309.34;134971;1284;25500;-71
2024/01/19 05:40:06;;;;;;;28.30;7.60;;;;;;;2.14;100.00;98318.66;134984;1284;22570;-72
2024/01/19 05:43:09;;;;;;;26.50;8.70;;;;;;;2.09;100.00;98326.41;135018;1284;22546;-68
2024/01/19 05:46:11;;;;;;;30.80;9.20;;;;;;;2.12;100.00;98333.54;134976;1284;25563;-71
2024/01/19 05:49:14;;;;;;;29.10;8.70;;;;;;;2.08;100.00;98343.19;135003;1284;22578;-69
2024/01/19 05:52:17;;;;;;;28.10;9.10;;;;;;;1.98;100.00;98352.80;135025;1264;23282;-65
2024/01/19 05:55:19;;;;;;;28.10;8.60;;;;;;;1.91;100.00;98358.05;134992;1284;22566;-73
2024/01/19 05:58:22;;;;;;;29.00;9.00;;;;;;;1.96;100.00;98359.80;134968;1284;25423;-68
2024/01/19 06:01:25;;;;;;;27.50;8.00;;;;;;;1.91;100.00;98363.93;134979;1284;24246;-68
2024/01/19 06:04:27;;;;;;;30.50;9.10;;;;;;;1.99;100.00;98372.64;135006;1284;22561;-66
2024/01/19 06:07:32;;;;;;;29.00;9.50;;;;;;;2.12;100.00;98372.02;134991;1284;25388;-69
2024/01/19 06:10:35;;;;;;;30.40;9.40;;;;;;;2.11;100.00;98367.23;135005;1284;22564;-67
2024/01/19 06:13:37;;;;;;;29.30;9.30;;;;;;;2.02;100.00;98370.11;135017;1284;23004;-66
2024/01/19 06:16:40;;;;;;;;;;;;;;;2.12;100.00;98368.21;135002;1284;22539;-68
2024/01/19 06:19:42;;;;;;;29.10;9.30;;;;;;;2.04;100.00;98373.15;134996;1284;26867;-70
2024/01/19 06:22:45;;;;;;;32.10;11.20;;;;;;;2.08;100.00;98381.83;134997;1284;24347;-72
2024/01/19 06:25:48;;;;;;;34.10;12.40;;;;;;;2.01;100.00;98387.40;134981;1284;22548;-69
2024/01/19 06:28:50;;;;;;;33.90;12.00;;;;;;;1.87;100.00;98392.69;135009;1260;22585;-66
2024/01/19 06:31:53;;;;;;;34.90;13.20;;;;;;;1.87;100.00;98401.98;135009;1284;22555;-68
2024/01/19 06:34:56;;;;;;;32.70;11.90;;;;;;;1.89;100.00;98411.92;134988;1284;22556;-69
2024/01/19 06:37:59;;;;;;;35.70;12.70;;;;;;;1.87;100.00;98415.25;134985;1284;22546;-67
2024/01/19 06:41:02;;;;;;;34.70;11.80;;;;;;;1.90;100.00;98426.55;134979;1265;22580;-69
2024/01/19 06:44:05;;;;;;;36.20;12.10;;;;;;;1.97;100.00;98438.91;134985;1284;24223;-72
2024/01/19 06:47:07;;;;;;;34.40;11.90;;;;;;;2.03;100.00;98437.86;134991;1284;24828;-73
2024/01/19 06:50:10;;;;;;;33.40;11.40;;;;;;;2.15;100.00;98443.00;134962;1284;22543;-69
2024/01/19 06:53:13;;;;;;;36.60;12.80;;;;;;;2.28;100.00;98443.42;134977;1284;25419;-67
2024/01/19 06:56:16;;;;;;;39.70;13.80;;;;;;;2.22;100.00;98451.40;134988;1284;22557;-69
2024/01/19 06:59:19;;;;;;;33.20;13.00;;;;;;;2.23;100.00;98446.00;134969;1268;22663;-71
2024/01/19 07:02:21;;;;;;;39.70;14.70;;;;;;;2.13;100.00;98443.23;135025;1284;22556;-71
2024/01/19 07:05:24;;;;;;;36.90;14.90;;;;;;;2.07;100.00;98452.58;134996;1284;22591;-70
2024/01/19 07:08:27;;;;;;;40.30;14.40;;;;;;;2.31;100.00;98456.63;134977;1284;25266;-68
2024/01/19 07:11:30;;;;;;;39.00;15.20;;;;;;;2.29;100.00;98453.91;134974;1284;22561;-68
2024/01/19 07:14:33;;;;;;;45.20;16.80;;;;;;;2.47;100.00;98459.54;135029;1284;22597;-71
2024/01/19 07:17:36;;;;;;;42.10;16.90;;;;;;;2.68;100.00;98464.70;134987;1284;25426;-71
2024/01/19 07:20:38;;;;;;;;;;;;;;;2.69;100.00;98465.19;135018;1284;22629;-70
2024/01/19 07:23:41;;;;;;;40.90;15.10;;;;;;;2.56;100.00;98470.98;134980;1284;25567;-66
2024/01/19 07:26:44;;;;;;;45.00;15.70;;;;;;;2.53;100.00;98476.95;134977;1284;22549;-73
2024/01/19 07:29:47;;;;;;;40.50;15.50;;;;;;;2.56;100.00;98473.05;135006;1284;22540;-71
2024/01/19 07:32:49;;;;;;;45.10;14.90;;;;;;;2.70;100.00;98466.51;134971;1284;22528;-66
2024/01/19 07:35:52;;;;;;;45.10;16.10;;;;;;;2.80;100.00;98465.64;134988;1284;22539;-68
2024/01/19 07:38:55;;;;;;;43.60;16.60;;;;;;;2.81;100.00;98470.63;134939;1284;22538;-69
2024/01/19 07:41:58;;;;;;;41.60;17.20;;;;;;;2.81;100.00;98465.27;134984;1284;25270;-69
2024/01/19 07:45:00;;;;;;;42.00;16.30;;;;;;;2.76;100.00;98463.73;135003;1284;22597;-68
2024/01/19 07:48:03;;;;;;;39.50;16.50;;;;;;;2.78;100.00;98459.87;134997;1275;22547;-68
2024/01/19 07:51:06;;;;;;;41.20;16.50;;;;;;;2.67;100.00;98464.22;134953;1284;22565;-70
2024/01/19 07:54:08;;;;;;;42.70;16.70;;;;;;;2.76;100.00;98468.91;134953;1284;24398;-67
2024/01/19 07:57:11;;;;;;;41.60;16.20;;;;;;;2.50;100.00;98479.95;134970;1284;22572;-68
2024/01/19 08:00:14;;;;;;;43.20;16.10;;;;;;;2.37;100.00;98476.44;134985;1284;22663;-69
2024/01/19 08:03:16;;;;;;;40.40;15.70;;;;;;;2.30;100.00;98478.06;134967;1284;22531;-71
2024/01/19 08:06:19;;;;;;;42.30;15.30;;;;;;;2.32;100.00;98480.40;134951;1284;22544;-65
2024/01/19 08:09:22;;;;;;;48.80;18.50;;;;;;;2.46;100.00;98482.19;134961;1284;25510;-70
2024/01/19 08:12:25;;;;;;;44.00;17.70;;;;;;;2.42;100.00;98481.11;134983;1284;22566;-69
2024/01/19 08:15:28;;;;;;;44.60;17.60;;;;;;;2.56;100.00;98487.52;134984;1284;22563;-71
2024/01/19 08:18:33;;;;;;;45.90;17.70;;;;;;;2.40;100.00;98498.42;135010;1284;25443;-69
2024/01/19 08:21:37;;;;;;;51.90;20.00;;;;;;;2.30;100.00;98497.52;134988;1265;22564;-70
2024/01/19 08:24:40;;;;;;;45.00;18.70;;;;;;;2.57;100.00;98493.91;134995;1283;22769;-68
2024/01/19 08:27:42;;;;;;;42.90;17.40;;;;;;;2.67;100.00;98498.92;134980;1284;22546;-69
2024/01/19 08:30:45;;;;;;;46.60;17.50;;;;;;;2.70;100.00;98508.30;134975;1284;22551;-70
2024/01/19 08:33:48;;;;;;;41.10;17.50;;;;;;;2.23;100.00;98511.58;134989;1284;26643;-65
2024/01/19 08:36:51;;;;;;;42.40;17.00;;;;;;;2.18;100.00;98511.02;134958;1284;22549;-67
2024/01/19 08:39:53;;;;;;;48.30;18.00;;;;;;;2.30;100.00;98517.21;134972;1284;24417;-70
2024/01/19 08:42:56;;;;;;;45.90;18.30;;;;;;;2.32;100.00;98522.16;134973;1284;22545;-71
2024/01/19 08:45:59;;;;;;;47.40;17.90;;;;;;;2.20;100.00;98523.57;134963;1284;22549;-70
2024/01/19 08:49:01;;;;;;;50.00;18.50;;;;;;;2.36;100.00;98531.17;135005;1284;25502;-69
2024/01/19 08:52:04;;;;;;;51.40;19.10;;;;;;;2.40;100.00;98535.20;134983;1265;22548;-69
2024/01/19 08:55:07;;;;;;;55.30;21.00;;;;;;;2.49;100.00;98533.51;134987;1284;22553;-68
2024/01/19 08:58:10;;;;;;;60.80;24.30;;;;;;;2.64;100.00;98538.71;134975;1284;25401;-66
2024/01/19 09:01:13;;;;;;;54.90;21.60;;;;;;;2.88;100.00;98539.98;134995;1284;22558;-69
2024/01/19 09:04:15;;;;;;;60.10;23.80;;;;;;;3.05;100.00;98544.09;134976;1265;22554;-70
2024/01/19 09:07:19;;;;;;;52.70;24.30;;;;;;;3.37;100.00;98547.59;134989;1284;22568;-69
2024/01/19 09:10:23;;;;;;;57.90;24.10;;;;;;;3.50;100.00;98556.98;134953;1284;22710;-69
2024/01/19 09:13:26;;;;;;;61.30;26.20;;;;;;;3.80;100.00;98560.21;134983;1284;22550;-70
2024/01/19 09:16:29;;;;;;;54.60;23.10;;;;;;;3.83;100.00;98567.55;135303;1280;22681;-68
2024/01/19 09:19:32;;;;;;;;;;;;;;;3.73;100.00;98578.09;135269;1280;22539;-69
2024/01/19 09:22:35;;;;;;;48.80;18.80;;;;;;;3.81;100.00;98583.52;135289;1280;25423;-64
2024/01/19 09:25:37;;;;;;;54.80;21.30;;;;;;;3.98;100.00;98591.75;135298;1280;22547;-69
2024/01/19 09:28:40;;;;;;;41.90;16.70;;;;;;;3.88;100.00;98604.39;135295;1280;22546;-70
2024/01/19 09:31:43;;;;;;;47.80;17.90;;;;;;;3.58;100.00;98614.83;135270;1280;22589;-69
2024/01/19 09:34:46;;;;;;;44.30;17.50;;;;;;;3.43;100.00;98619.64;135324;1280;22573;-69
2024/01/19 09:37:48;;;;;;;44.40;18.90;;;;;;;3.88;100.00;98614.03;135314;1258;22651;-71
2024/01/19 09:40:51;;;;;;;;;;;;;;;4.08;100.00;98618.35;135313;1280;22544;-68
2024/01/19 09:43:54;;;;;;;42.40;18.30;;;;;;;4.20;100.00;98624.48;135307;1280;22651;-69
2024/01/19 09:46:56;;;;;;;45.00;18.00;;;;;;;3.97;100.00;98629.98;135279;1280;25352;-68
2024/01/19 09:49:59;;;;;;;43.40;18.00;;;;;;;4.42;100.00;98631.40;135294;1280;22599;-69
2024/01/19 09:53:02;;;;;;;43.50;16.80;;;;;;;4.82;100.00;98632.74;135275;1280;22579;-70
2024/01/19 09:56:07;;;;;;;43.10;17.60;;;;;;;4.68;100.00;98629.02;135290;1280;22562;-68
2024/01/19 09:59:10;;;;;;;37.50;15.50;;;;;;;4.36;100.00;98635.63;135311;1280;24378;-64
2024/01/19 10:02:13;;;;;;;;;;;;;;;4.21;100.00;98638.77;135285;1280;22682;-65
2024/01/19 10:05:15;;;;;;;36.20;14.60;;;;;;;3.98;100.00;98634.77;135284;1280;22716;-71
2024/01/19 10:08:18;;;;;;;43.20;17.10;;;;;;;3.87;100.00;98640.91;135282;1280;22603;-73
2024/01/19 10:11:21;;;;;;;;;;;;;;;3.69;100.00;98645.03;135301;1280;22629;-68
2024/01/19 10:14:26;;;;;;;43.30;16.80;;;;;;;3.98;100.00;98642.77;135323;1280;22556;-70
2024/01/19 10:17:29;;;;;;;44.20;17.60;;;;;;;4.14;100.00;98637.50;135278;1280;22535;-69
2024/01/19 10:20:32;;;;;;;43.40;17.90;;;;;;;4.16;100.00;98632.20;135281;1280;22648;-71
2024/01/19 10:23:35;;;;;;;42.40;17.50;;;;;;;4.35;100.00;98633.39;135329;1280;22547;-70
2024/01/19 10:26:38;;;;;;;41.30;17.10;;;;;;;4.51;100.00;98635.02;135247;1280;22546;-62
2024/01/19 10:29:41;;;;;;;;;;;;;;;4.40;100.00;98638.24;135347;1280;25277;-69
2024/01/19 10:32:43;;;;;;;45.70;18.90;;;;;;;4.38;100.00;98639.69;135294;1280;22592;-72
2024/01/19 10:35:46;;;;;;;48.40;20.90;;;;;;;4.38;100.00;98641.09;135298;1280;22647;-62
2024/01/19 10:38:49;;;;;;;46.40;18.30;;;;;;;4.32;100.00;98642.88;135240;1280;25502;-72
2024/01/19 10:41:52;;;;;;;;;;;;;;;4.59;100.00;98644.44;135298;1280;22513;-73
2024/01/19 10:44:55;;;;;;;47.40;18.20;;;;;;;4.29;100.00;98645.08;135286;1267;24399;-71
2024/01/19 10:47:59;;;;;;;;;;;;;;;4.20;100.00;98640.39;135343;1262;22521;-74
2024/01/19 10:51:02;;;;;;;42.80;18.30;;;;;;;4.32;100.00;98642.18;135297;1280;22583;-65
2024/01/19 10:54:04;;;;;;;43.50;18.90;;;;;;;4.36;100.00;98639.60;135286;1280;22533;-70
2024/01/19 10:57:08;;;;;;;46.90;19.00;;;;;;;4.13;100.00;98646.70;135309;1261;22548;-69
2024/01/19 11:00:11;;;;;;;42.60;18.30;;;;;;;4.00;100.00;98649.45;135264;1280;22559;-67
2024/01/19 11:03:14;;;;;;;45.30;17.80;;;;;;;3.83;100.00;98653.17;135287;1280;22558;-68
2024/01/19 11:06:17;;;;;;;44.10;19.60;;;;;;;3.63;100.00;98652.48;135308;1280;22559;-71
2024/01/19 11:09:20;;;;;;;51.70;20.70;;;;;;;3.71;100.00;98650.46;135269;1267;22790;-71
2024/01/19 11:12:22;;;;;;;;;;;;;;;3.97;100.00;98649.90;135324;1280;22636;-65
2024/01/19 11:15:25;;;;;;;51.20;21.60;;;;;;;4.02;100.00;98653.85;135273;1280;23912;-70
2024/01/19 11:18:29;;;;;;;51.00;20.80;;;;;;;4.25;100.00;98655.75;135290;1280;22645;-73
2024/01/19 11:21:32;;;;;;;47.50;19.70;;;;;;;4.38;100.00;98656.33;135290;1280;22560;-70
2024/01/19 11:24:35;;;;;;;50.60;20.40;;;;;;;4.04;100.00;98655.19;135288;1280;22565;-71
2024/01/19 11:27:37;;;;;;;47.40;17.90;;;;;;;3.88;100.00;98656.10;135296;1280;22652;-70
2024/01/19 11:30:40;;;;;;;;;;;;;;;3.90;100.00;98652.56;135296;1280;22527;-68
2024/01/19 11:33:43;;;;;;;52.60;21.10;;;;;;;3.98;100.00;98650.55;135320;1280;22541;-69
2024/01/19 11:36:45;;;;;;;45.70;18.50;;;;;;;4.32;100.00;98648.73;135303;1259;25437;-68
2024/01/19 11:39:48;;;;;;;;;;;;;;;4.60;100.00;98640.73;135291;1281;22547;-71
2024/01/19 11:42:51;;;;;;;47.10;18.30;;;;;;;4.63;100.00;98640.09;135320;1271;22568;-76
2024/01/19 11:45:53;;;;;;;;;;;;;;;4.71;100.00;98636.67;135324;1280;25409;-70
2024/01/19 11:48:56;;;;;;;45.60;17.90;;;;;;;4.76;100.00;98642.02;135275;1280;24641;-73
2024/01/19 11:51:59;;;;;;;42.00;17.40;;;;;;;5.08;100.00;98649.04;135327;1280;22586;-72
2024/01/19 11:55:02;;;;;;;42.90;18.60;;;;;;;4.98;100.00;98647.20;135280;1280;22542;-70
2024/01/19 11:58:05;;;;;;;45.10;18.90;;;;;;;4.68;100.00;98649.95;135325;1257;22606;-71
2024/01/19 12:01:09;;;;;;;;;;;;;;;4.92;100.00;98650.02;135303;1280;22536;-71
2024/01/19 12:04:11;;;;;;;45.00;17.30;;;;;;;4.89;100.00;98649.83;135308;1280;22562;-69
2024/01/19 12:07:14;;;;;;;;;;;;;;;4.95;100.00;98646.46;135297;1280;22563;-67
2024/01/19 12:10:18;;;;;;;50.20;18.00;;;;;;;5.03;100.00;98649.95;135317;1280;26695;-68
2024/01/19 12:13:20;;;;;;;46.80;17.30;;;;;;;5.04;100.00;98649.91;135286;1273;22612;-70
2024/01/19 12:16:23;;;;;;;;;;;;;;;4.82;100.00;98655.99;135321;1280;22622;-67
2024/01/19 12:19:26;;;;;;;;;;;;;;;4.80;100.00;98653.80;135287;1280;23311;-66
2024/01/19 12:22:29;;;;;;;47.40;18.80;;;;;;;5.08;100.00;98659.27;135332;1280;22534;-71
2024/01/19 12:25:31;;;;;;;44.50;18.10;;;;;;;5.03;100.00;98662.23;135250;1280;22543;-63
2024/01/19 12:28:34;;;;;;;;;;;;;;;5.00;100.00;98662.36;135338;1276;22515;-71
2024/01/19 12:31:37;;;;;;;42.00;16.70;;;;;;;4.70;100.00;98661.82;135301;1280;22565;-71
2024/01/19 12:34:40;;;;;;;42.80;18.30;;;;;;;4.74;100.00;98658.02;135352;1280;22551;-73
2024/01/19 12:37:43;;;;;;;44.50;18.10;;;;;;;4.85;100.00;98656.39;135349;1280;22594;-62
2024/01/19 12:40:46;;;;;;;;;;;;;;;4.71;100.00;98658.67;135301;1280;22526;-72
2024/01/19 12:43:49;;;;;;;40.90;15.40;;;;;;;4.56;100.00;98663.75;135313;1280;25347;-70
2024/01/19 12:46:51;;;;;;;45.80;17.90;;;;;;;4.56;100.00;98668.61;135300;1280;24324;-69
2024/01/19 12:49:57;;;;;;;;;;;;;;;4.60;100.00;98675.36;135312;1280;22526;-68
2024/01/19 12:53:00;;;;;;;45.20;18.90;;;;;;;4.44;100.00;98678.77;135352;1280;22655;-71
2024/01/19 12:56:03;;;;;;;50.30;19.90;;;;;;;4.54;100.00;98679.77;135335;1280;22526;-69
2024/01/19 12:59:05;;;;;;;51.60;20.50;;;;;;;5.07;100.00;98682.19;135318;1280;22566;-71
2024/01/19 13:02:08;;;;;;;;;;;;;;;5.40;100.00;98684.81;135333;1280;25395;-71
2024/01/19 13:05:11;;;;;;;51.80;19.00;;;;;;;5.38;100.00;98687.69;135269;1280;22614;-72
2024/01/19 13:08:13;;;;;;;44.70;18.40;;;;;;;5.27;100.00;98685.02;135288;1280;23046;-66
2024/01/19 13:11:16;;;;;;;44.50;18.40;;;;;;;5.04;100.00;98691.50;135288;1280;22561;-71
2024/01/19 13:14:19;;;;;;;45.30;18.60;;;;;;;5.13;100.00;98691.13;135322;1280;22549;-72
2024/01/19 13:17:22;;;;;;;82.10;30.70;;;;;;;4.97;100.00;98694.21;135289;1280;24091;-68
2024/01/19 13:20:25;;;;;;;;;;;;;;;5.08;100.00;98697.59;135284;1280;22513;-71
2024/01/19 13:23:28;;;;;;;45.30;19.30;;;;;;;5.03;100.00;98702.64;135329;1280;22651;-70
2024/01/19 13:26:31;;;;;;;48.50;19.60;;;;;;;5.29;100.00;98699.33;135340;1280;22541;-75
2024/01/19 13:29:33;;;;;;;40.10;15.60;;;;;;;5.26;100.00;98706.52;135325;1280;22753;-74
2024/01/19 13:32:36;;;;;;;;;;;;;;;4.76;100.00;98703.68;135310;1280;22568;-71
2024/01/19 13:35:39;;;;;;;38.30;14.80;;;;;;;4.99;100.00;98705.73;135333;1280;22593;-72
2024/01/19 13:38:41;;;;;;;40.80;16.30;;;;;;;4.89;100.00;98710.63;135296;1280;25262;-70
2024/01/19 13:41:44;;;;;;;42.60;17.70;;;;;;;4.86;100.00;98711.62;135325;1280;24221;-66
2024/01/19 13:44:47;;;;;;;;;;;;;;;4.71;100.00;98718.41;135346;1280;25992;-72
2024/01/19 13:47:49;;;;;;;39.20;16.70;;;;;;;4.58;100.00;98722.56;135302;1280;25395;-72
2024/01/19 13:50:52;;;;;;;39.30;16.40;;;;;;;4.43;100.00;98720.89;135314;1280;22574;-69
2024/01/19 13:53:55;;;;;;;47.00;17.00;;;;;;;4.53;100.00;98719.63;135300;1280;22557;-70
2024/01/19 13:56:57;;;;;;;;;;;;;;;4.60;100.00;98719.22;135351;1280;25343;-72
2024/01/19 14:00:00;;;;;;;45.60;18.40;;;;;;;4.55;100.00;98719.23;135311;1280;22586;-75
2024/01/19 14:03:03;;;;;;;45.90;17.80;;;;;;;4.48;100.00;98717.73;135341;1280;22579;-65
2024/01/19 14:06:06;;;;;;;48.20;18.10;;;;;;;4.43;100.00;98724.16;135335;1281;23193;-62
2024/01/19 14:09:09;;;;;;;46.60;17.20;;;;;;;4.19;100.00;98726.26;135340;1280;22552;-72
2024/01/19 14:12:12;;;;;;;44.00;16.30;;;;;;;4.21;100.00;98723.96;135291;1280;22620;-69
2024/01/19 14:15:15;;;;;;;43.50;18.10;;;;;;;4.32;100.00;98728.23;135327;1257;25422;-70
2024/01/19 14:18:17;;;;;;;52.20;20.00;;;;;;;4.42;100.00;98731.67;135323;1280;22585;-70
2024/01/19 14:21:20;;;;;;;42.80;16.70;;;;;;;4.43;100.00;98729.54;135320;1261;22549;-71
2024/01/19 14:24:23;;;;;;;;;;;;;;;4.18;100.00;98734.60;135362;1280;22527;-71
2024/01/19 14:27:28;;;;;;;51.00;20.00;;;;;;;4.17;100.00;98733.59;135319;1280;22534;-69
2024/01/19 14:30:31;;;;;;;53.70;20.60;;;;;;;4.31;100.00;98731.20;135343;1280;22633;-67
2024/01/19 14:33:33;;;;;;;;;;;;;;;4.38;100.00;98726.95;135372;1280;22530;-71
2024/01/19 14:36:36;;;;;;;41.70;17.00;;;;;;;4.11;100.00;98732.80;135319;1280;22568;-70
2024/01/19 14:39:39;;;;;;;45.20;16.50;;;;;;;3.97;100.00;98732.56;135355;1280;25268;-70
2024/01/19 14:42:42;;;;;;;45.70;16.90;;;;;;;4.01;100.00;98738.86;135350;1280;22554;-69
2024/01/19 14:45:46;;;;;;;56.50;23.00;;;;;;;4.01;100.00;98739.56;135343;1280;22569;-71
2024/01/19 14:48:49;;;;;;;64.70;25.30;;;;;;;3.75;100.00;98739.07;135363;1280;22542;-73
2024/01/19 14:51:52;;;;;;;;;;;;;;;3.69;100.00;98739.63;135354;1281;25275;-70
2024/01/19 14:54:57;;;;;;;58.30;23.50;;;;;;;3.61;100.00;98746.13;135344;1280;25268;-62
2024/01/19 14:58:00;;;;;;;51.80;21.50;;;;;;;3.51;100.00;98741.10;135354;1261;22566;-71
2024/01/19 15:01:03;;;;;;;58.00;19.90;;;;;;;2.77;100.00;98747.23;135371;1280;22550;-72
2024/01/19 15:04:06;;;;;;;50.30;18.30;;;;;;;2.50;100.00;98747.02;135334;1280;24667;-70
2024/01/19 15:07:08;;;;;;;51.90;18.80;;;;;;;2.60;100.00;98751.87;135308;1280;22546;-69
2024/01/19 15:10:13;;;;;;;37.40;13.30;;;;;;;2.60;100.00;98756.55;135336;1280;22647;-70
2024/01/19 15:13:18;;;;;;;42.90;15.20;;;;;;;2.61;100.00;98758.95;135322;1280;22535;-70
2024/01/19 15:16:21;;;;;;;37.60;12.80;;;;;;;2.52;100.00;98760.94;135326;1275;22570;-69
2024/01/19 15:19:24;;;;;;;44.00;14.20;;;;;;;2.50;100.00;98762.02;135355;1280;22569;-66
2024/01/19 15:22:26;;;;;;;46.80;16.90;;;;;;;2.52;100.00;98761.63;135321;1280;25409;-70